createdAt,value
2023-01-20T00:01:15.637Z,54.93
2023-01-20T00:03:18.418Z,54.77
2023-01-20T00:05:21.062Z,54.27
2023-01-20T00:07:24.018Z,53.98
2023-01-20T00:09:26.696Z,54.56
2023-01-20T00:11:29.875Z,55.07
2023-01-20T00:13:32.685Z,55.60
2023-01-20T00:15:35.650Z,56.24
2023-01-20T00:17:38.266Z,55.17
2023-01-20T00:19:40.902Z,53.97
2023-01-20T00:21:43.915Z,53.54
2023-01-20T00:23:47.576Z,54.18
2023-01-20T00:25:50.308Z,53.93
2023-01-20T00:27:55.647Z,54.96
2023-01-20T00:29:58.296Z,53.63
2023-01-20T00:32:02.524Z,54.58
2023-01-20T00:34:05.538Z,53.56
2023-01-20T00:36:09.045Z,53.69
2023-01-20T00:38:11.867Z,54.20
2023-01-20T00:40:14.621Z,53.47
2023-01-20T00:42:17.315Z,53.18
2023-01-20T00:44:20.008Z,53.95
2023-01-20T00:46:23.378Z,55.44
2023-01-20T00:48:26.215Z,55.05
2023-01-20T00:50:28.847Z,55.59
2023-01-20T00:52:31.482Z,56.50
2023-01-20T00:54:34.174Z,55.58
2023-01-20T00:56:36.775Z,56.21
2023-01-20T00:58:39.639Z,56.79
2023-01-20T01:00:42.505Z,57.06
2023-01-20T01:02:45.189Z,57.91
2023-01-20T01:04:51.299Z,58.82
2023-01-20T01:06:54.004Z,58.79
2023-01-20T01:08:57.320Z,59.67
2023-01-20T01:11:00.014Z,60.46
2023-01-20T01:13:04.430Z,61.18
2023-01-20T01:15:07.902Z,60.60
2023-01-20T01:17:10.578Z,61.49
2023-01-20T01:19:13.318Z,61.42
2023-01-20T01:21:17.493Z,62.64
2023-01-20T01:23:20.246Z,62.25
2023-01-20T01:25:23.119Z,62.52
2023-01-20T01:27:27.648Z,62.85
2023-01-20T01:29:30.369Z,63.52
2023-01-20T01:31:33.218Z,63.24
2023-01-20T01:33:36.854Z,63.73
2023-01-20T01:35:39.535Z,63.66
2023-01-20T01:37:42.233Z,65.13
2023-01-20T01:39:45.018Z,65.05
2023-01-20T01:41:47.753Z,64.97
2023-01-20T01:44:21.039Z,65.53
2023-01-20T01:46:23.771Z,65.00
2023-01-20T01:48:37.067Z,65.39
2023-01-20T01:50:53.442Z,65.11
2023-01-20T01:52:57.205Z,64.91
2023-01-20T01:55:00.450Z,65.04
2023-01-20T01:57:04.177Z,65.16
2023-01-20T01:59:06.834Z,64.81
2023-01-20T02:01:10.372Z,65.32
2023-01-20T02:03:13.864Z,63.53
2023-01-20T02:05:17.895Z,63.01
2023-01-20T02:07:22.293Z,64.59
2023-01-20T02:09:26.733Z,63.57
2023-01-20T02:11:32.983Z,63.53
2023-01-20T02:13:36.614Z,64.01
2023-01-20T02:15:50.199Z,64.16
2023-01-20T02:18:16.326Z,64.49
2023-01-20T02:20:46.479Z,63.99
2023-01-20T02:23:10.989Z,64.71
2023-01-20T02:25:41.549Z,65.08
2023-01-20T02:28:05.155Z,65.52
2023-01-20T02:30:10.632Z,65.61
2023-01-20T02:32:31.236Z,65.48
2023-01-20T02:34:59.386Z,65.96
2023-01-20T02:37:25.647Z,66.97
2023-01-20T02:39:56.670Z,65.97
2023-01-20T02:42:08.345Z,65.97
2023-01-20T02:44:38.506Z,66.58
2023-01-20T02:46:59.078Z,67.18
2023-01-20T02:49:17.481Z,66.96
2023-01-20T02:51:27.415Z,66.87
2023-01-20T02:53:38.583Z,66.93
2023-01-20T02:55:46.688Z,67.11
2023-01-20T02:57:56.056Z,67.04
2023-01-20T03:00:06.624Z,67.38
2023-01-20T03:02:14.076Z,67.62
2023-01-20T03:04:22.112Z,67.63
2023-01-20T03:06:29.166Z,68.04
2023-01-20T03:08:33.577Z,68.60
2023-01-20T03:10:38.980Z,68.25
2023-01-20T03:12:55.439Z,68.49
2023-01-20T03:14:58.159Z,68.71
2023-01-20T03:17:02.301Z,69.46
2023-01-20T03:19:05.039Z,69.22
2023-01-20T03:21:10.265Z,68.90
2023-01-20T03:23:12.983Z,69.29
2023-01-20T03:25:18.069Z,68.88
2023-01-20T03:27:20.687Z,69.47
2023-01-20T03:29:23.355Z,69.89
2023-01-20T03:31:30.529Z,69.94
2023-01-20T03:33:34.040Z,69.67
2023-01-20T03:35:37.269Z,69.90
2023-01-20T03:37:40.051Z,69.86
2023-01-20T03:39:42.828Z,69.73
2023-01-20T03:42:20.977Z,70.32
2023-01-20T03:45:00.962Z,69.37
2023-01-20T03:47:31.322Z,69.24
2023-01-20T03:49:52.022Z,69.89
2023-01-20T03:52:09.174Z,69.92
2023-01-20T03:54:18.839Z,70.01
2023-01-20T03:56:33.105Z,69.81
2023-01-20T03:58:40.998Z,69.92
2023-01-20T04:00:47.740Z,70.00
2023-01-20T04:02:51.418Z,69.94
2023-01-20T04:04:54.801Z,70.04
2023-01-20T04:06:57.856Z,69.99
2023-01-20T04:09:05.776Z,69.68
2023-01-20T04:11:09.019Z,70.19
2023-01-20T04:13:11.765Z,70.04
2023-01-20T04:15:15.396Z,70.09
2023-01-20T04:17:18.499Z,70.15
2023-01-20T04:19:21.196Z,70.77
2023-01-20T04:21:39.278Z,70.48
2023-01-20T04:23:53.128Z,70.91
2023-01-20T04:25:55.794Z,71.16
2023-01-20T04:27:58.573Z,71.46
2023-01-20T04:30:01.215Z,71.54
2023-01-20T04:32:04.897Z,71.64
2023-01-20T04:34:08.204Z,72.05
2023-01-20T04:36:10.844Z,71.52
2023-01-20T04:38:13.566Z,72.06
2023-01-20T04:40:16.495Z,72.18
2023-01-20T04:42:19.096Z,72.35
2023-01-20T04:44:21.815Z,72.24
2023-01-20T04:46:24.576Z,71.73
2023-01-20T04:48:27.240Z,73.10
2023-01-20T04:50:29.815Z,72.48
2023-01-20T04:52:32.470Z,72.76
2023-01-20T04:54:35.102Z,73.78
2023-01-20T04:56:37.698Z,72.78
2023-01-20T04:58:40.688Z,73.96
2023-01-20T05:00:43.792Z,72.72
2023-01-20T05:02:47.418Z,72.68
2023-01-20T05:04:50.150Z,72.56
2023-01-20T05:06:52.783Z,72.98
2023-01-20T05:08:55.439Z,73.08
2023-01-20T05:10:58.349Z,73.73
2023-01-20T05:13:01.670Z,73.09
2023-01-20T05:15:04.791Z,71.98
2023-01-20T05:17:07.519Z,72.43
2023-01-20T05:19:11.886Z,72.07
2023-01-20T05:21:14.564Z,72.76
2023-01-20T05:23:17.920Z,72.84
2023-01-20T05:25:20.574Z,73.58
2023-01-20T05:27:23.438Z,73.07
2023-01-20T05:29:26.244Z,73.47
2023-01-20T05:31:29.606Z,73.08
2023-01-20T05:33:32.477Z,73.21
2023-01-20T05:35:35.083Z,73.43
2023-01-20T05:37:37.865Z,73.72
2023-01-20T05:39:40.611Z,72.70
2023-01-20T05:41:43.248Z,73.26
2023-01-20T05:43:46.131Z,73.36
2023-01-20T05:45:48.773Z,72.76
2023-01-20T05:47:58.785Z,72.86
2023-01-20T05:50:01.390Z,73.55
2023-01-20T05:52:04.162Z,73.28
2023-01-20T05:54:07.155Z,73.38
2023-01-20T05:56:12.288Z,73.07
2023-01-20T05:58:15.727Z,72.95
2023-01-20T06:00:19.143Z,72.94
2023-01-20T06:02:22.037Z,72.85
2023-01-20T06:04:24.892Z,71.36
2023-01-20T06:06:27.744Z,72.09
2023-01-20T06:08:30.763Z,71.79
2023-01-20T06:10:33.657Z,72.36
2023-01-20T06:12:36.439Z,71.70
2023-01-20T06:14:39.153Z,71.69
2023-01-20T06:16:41.914Z,72.10
2023-01-20T06:18:45.012Z,72.68
2023-01-20T06:20:47.993Z,71.54
2023-01-20T06:22:55.369Z,71.13
2023-01-20T06:24:58.026Z,71.98
2023-01-20T06:27:00.680Z,70.72
2023-01-20T06:29:03.540Z,70.53
2023-01-20T06:31:15.211Z,70.83
2023-01-20T06:33:17.989Z,70.80
2023-01-20T06:35:21.463Z,70.32
2023-01-20T06:37:24.201Z,70.26
2023-01-20T06:39:27.401Z,70.33
2023-01-20T06:41:30.193Z,70.02
2023-01-20T06:43:34.597Z,69.71
2023-01-20T06:45:38.692Z,69.64
2023-01-20T06:47:41.359Z,69.13
2023-01-20T06:49:44.000Z,69.10
2023-01-20T06:51:48.962Z,68.77
2023-01-20T06:53:51.639Z,67.92
2023-01-20T06:55:57.096Z,68.58
2023-01-20T06:57:59.882Z,67.88
2023-01-20T07:00:02.984Z,67.58
2023-01-20T07:02:07.683Z,67.84
2023-01-20T07:04:14.748Z,66.90
2023-01-20T07:06:26.340Z,67.34
2023-01-20T07:08:29.336Z,67.04
2023-01-20T07:10:32.098Z,67.00
2023-01-20T07:12:34.774Z,66.86
2023-01-20T07:14:37.439Z,67.52
2023-01-20T07:16:58.544Z,65.33
2023-01-20T07:19:01.217Z,65.88
2023-01-20T07:21:05.028Z,66.41
2023-01-20T07:23:07.805Z,64.78
2023-01-20T07:25:10.648Z,65.08
2023-01-20T07:27:15.480Z,64.48
2023-01-20T07:29:18.413Z,63.46
2023-01-20T07:31:23.912Z,64.15
2023-01-20T07:33:26.685Z,63.48
2023-01-20T07:35:29.381Z,63.66
2023-01-20T07:37:32.123Z,63.40
2023-01-20T07:39:36.627Z,63.40
2023-01-20T07:41:39.487Z,63.07
2023-01-20T07:43:46.586Z,63.42
2023-01-20T07:45:49.237Z,62.68
2023-01-20T07:47:55.441Z,63.29
2023-01-20T07:49:58.254Z,62.89
2023-01-20T07:52:00.922Z,62.10
2023-01-20T07:54:04.735Z,62.57
2023-01-20T07:56:28.352Z,62.34
2023-01-20T07:58:31.518Z,62.22
2023-01-20T08:00:34.360Z,62.24
2023-01-20T08:02:38.785Z,62.34
2023-01-20T08:04:41.686Z,62.47
2023-01-20T08:06:44.422Z,61.53
2023-01-20T08:08:47.423Z,61.75
2023-01-20T08:10:56.280Z,61.21
2023-01-20T08:12:59.231Z,62.06
2023-01-20T08:15:01.880Z,62.10
2023-01-20T08:17:04.868Z,61.94
2023-01-20T08:19:07.664Z,61.50
2023-01-20T08:21:22.376Z,60.06
2023-01-20T08:23:25.117Z,61.25
2023-01-20T08:25:27.877Z,61.19
2023-01-20T08:27:30.565Z,61.66
2023-01-20T08:29:33.850Z,61.19
2023-01-20T08:31:37.626Z,61.12
2023-01-20T08:33:42.854Z,60.99
2023-01-20T08:35:45.602Z,61.86
2023-01-20T08:37:48.304Z,60.30
2023-01-20T08:39:51.026Z,61.62
2023-01-20T08:41:54.048Z,61.40
2023-01-20T08:43:59.219Z,61.72
2023-01-20T08:46:04.097Z,61.07
2023-01-20T08:48:08.907Z,61.03
2023-01-20T08:50:14.277Z,61.46
2023-01-20T08:52:17.074Z,61.45
2023-01-20T08:54:19.957Z,61.82
2023-01-20T08:56:22.863Z,62.10
2023-01-20T08:58:26.183Z,60.63
2023-01-20T09:00:28.898Z,62.24
2023-01-20T09:02:31.812Z,61.62
2023-01-20T09:04:37.487Z,61.07
2023-01-20T09:06:41.740Z,60.74
2023-01-20T09:08:44.636Z,61.28
2023-01-20T09:10:47.740Z,62.03
2023-01-20T09:12:50.370Z,60.89
2023-01-20T09:14:53.150Z,60.58
2023-01-20T09:16:55.851Z,61.06
2023-01-20T09:18:58.575Z,60.29
2023-01-20T09:21:03.033Z,59.81
2023-01-20T09:23:06.038Z,61.09
2023-01-20T09:25:10.017Z,61.86
2023-01-20T09:27:12.746Z,61.63
2023-01-20T09:29:18.237Z,62.01
2023-01-20T09:31:21.097Z,61.79
2023-01-20T09:33:23.949Z,62.64
2023-01-20T09:35:29.596Z,62.46
2023-01-20T09:37:55.403Z,62.66
2023-01-20T09:40:16.786Z,62.97
2023-01-20T09:43:10.240Z,62.67
2023-01-20T09:45:32.831Z,63.17
2023-01-20T09:47:46.761Z,62.58
2023-01-20T09:50:35.521Z,63.49
2023-01-20T09:52:57.716Z,64.04
2023-01-20T09:55:08.422Z,64.58
2023-01-20T09:57:14.203Z,64.21
2023-01-20T09:59:42.825Z,64.37
2023-01-20T10:01:54.197Z,64.62
2023-01-20T10:03:59.738Z,65.41
2023-01-20T10:06:07.661Z,64.84
2023-01-20T10:08:10.503Z,64.96
2023-01-20T10:10:23.678Z,63.41
2023-01-20T10:12:32.364Z,63.63
2023-01-20T10:14:43.677Z,62.88
2023-01-20T10:17:24.922Z,63.10
2023-01-20T10:19:49.930Z,63.58
2023-01-20T10:21:58.878Z,63.85
2023-01-20T10:24:10.475Z,64.19
2023-01-20T10:26:42.132Z,63.38
2023-01-20T10:28:53.613Z,62.80
2023-01-20T10:31:03.551Z,62.80
2023-01-20T10:33:13.441Z,63.80
2023-01-20T10:35:21.412Z,63.00
2023-01-20T10:37:28.140Z,63.83
2023-01-20T10:39:52.861Z,64.09
2023-01-20T10:42:05.146Z,63.70
2023-01-20T10:44:12.294Z,64.25
2023-01-20T10:46:39.394Z,64.13
2023-01-20T10:49:27.861Z,64.67
2023-01-20T10:51:54.225Z,64.47
2023-01-20T10:54:37.189Z,65.61
2023-01-20T10:56:53.636Z,65.01
2023-01-20T10:59:00.143Z,64.65
2023-01-20T11:01:10.470Z,64.27
2023-01-20T11:03:19.983Z,64.86
2023-01-20T11:05:26.174Z,65.41
2023-01-20T11:07:39.839Z,65.04
2023-01-20T11:09:42.865Z,65.14
2023-01-20T11:11:45.767Z,65.25
2023-01-20T11:13:51.869Z,64.50
2023-01-20T11:16:00.343Z,64.61
2023-01-20T11:18:28.214Z,63.96
2023-01-20T11:20:31.172Z,63.81
2023-01-20T11:22:36.961Z,63.98
2023-01-20T11:24:44.996Z,63.92
2023-01-20T11:26:47.792Z,63.69
2023-01-20T11:28:57.902Z,64.24
2023-01-20T11:31:00.741Z,63.97
2023-01-20T11:33:34.690Z,64.23
2023-01-20T11:35:38.086Z,64.77
2023-01-20T11:37:40.845Z,65.12
2023-01-20T11:39:45.076Z,64.61
2023-01-20T11:41:48.769Z,64.84
2023-01-20T11:43:55.604Z,64.55
2023-01-20T11:46:11.415Z,65.40
2023-01-20T11:48:16.095Z,63.91
2023-01-20T11:50:26.471Z,63.70
2023-01-20T11:52:29.167Z,64.50
2023-01-20T11:54:31.867Z,64.72
2023-01-20T11:56:44.531Z,65.80
2023-01-20T11:59:00.173Z,64.19
2023-01-20T12:01:08.236Z,64.52
2023-01-20T12:03:10.938Z,64.37
2023-01-20T12:05:27.323Z,64.71
2023-01-20T12:07:38.496Z,63.88
2023-01-20T12:09:45.016Z,63.18
2023-01-20T12:12:03.362Z,63.58
2023-01-20T12:14:25.212Z,63.91
2023-01-20T12:16:31.000Z,63.53
2023-01-20T12:18:56.907Z,62.63
2023-01-20T12:21:18.368Z,63.24
2023-01-20T12:23:39.486Z,62.36
2023-01-20T12:26:01.026Z,60.98
2023-01-20T12:28:12.331Z,63.08
2023-01-20T12:30:45.162Z,61.39
2023-01-20T12:32:48.279Z,61.62
2023-01-20T12:34:51.707Z,62.20
2023-01-20T12:37:14.140Z,61.71
2023-01-20T12:39:29.845Z,61.07
2023-01-20T12:42:02.721Z,61.55
2023-01-20T12:44:27.203Z,60.95
2023-01-20T12:47:00.961Z,61.34
2023-01-20T12:49:25.448Z,59.75
2023-01-20T12:51:30.911Z,60.84
2023-01-20T12:54:03.852Z,60.41
2023-01-20T12:56:32.367Z,60.26
2023-01-20T12:59:02.355Z,59.77
2023-01-20T13:01:38.232Z,59.31
2023-01-20T13:03:59.325Z,59.29
2023-01-20T13:06:35.007Z,58.48
2023-01-20T13:08:43.263Z,59.83
2023-01-20T13:10:54.729Z,58.97
2023-01-20T13:13:18.421Z,59.25
2023-01-20T13:15:29.839Z,59.56
2023-01-20T13:17:44.894Z,60.19
2023-01-20T13:19:49.713Z,61.62
2023-01-20T13:22:06.763Z,60.16
2023-01-20T13:24:19.796Z,60.77
2023-01-20T13:26:22.687Z,59.89
2023-01-20T13:28:28.869Z,61.14
2023-01-20T13:30:37.629Z,59.10
2023-01-20T13:32:45.475Z,59.90
2023-01-20T13:34:50.567Z,61.14
2023-01-20T13:37:02.608Z,60.84
2023-01-20T13:39:30.330Z,59.15
2023-01-20T13:41:53.037Z,61.72
2023-01-20T13:43:55.731Z,60.49
2023-01-20T13:46:04.519Z,60.95
2023-01-20T13:48:07.274Z,60.38
2023-01-20T13:50:27.498Z,60.73
2023-01-20T13:52:54.504Z,60.56
2023-01-20T13:54:57.827Z,60.72
2023-01-20T13:57:23.502Z,59.94
2023-01-20T13:59:26.164Z,60.84
2023-01-20T14:01:28.971Z,61.85
2023-01-20T14:03:39.006Z,61.11
2023-01-20T14:05:42.119Z,61.97
2023-01-20T14:07:45.728Z,62.26
2023-01-20T14:09:57.241Z,62.79
2023-01-20T14:12:00.088Z,62.93
2023-01-20T14:14:07.826Z,62.85
2023-01-20T14:16:23.044Z,63.39
2023-01-20T14:18:27.273Z,63.78
2023-01-20T14:20:30.815Z,64.71
2023-01-20T14:22:33.522Z,64.43
2023-01-20T14:24:38.082Z,64.33
2023-01-20T14:26:40.754Z,63.87
2023-01-20T14:28:54.353Z,66.06
2023-01-20T14:31:24.597Z,64.33
2023-01-20T14:33:28.116Z,66.27
2023-01-20T14:35:34.025Z,66.82
2023-01-20T14:37:39.134Z,65.88
2023-01-20T14:39:49.693Z,66.73
2023-01-20T14:41:58.002Z,65.87
2023-01-20T14:44:02.056Z,65.91
2023-01-20T14:46:05.628Z,66.87
2023-01-20T14:48:13.621Z,68.05
2023-01-20T14:50:20.853Z,66.73
2023-01-20T14:52:29.619Z,67.22
2023-01-20T14:54:44.840Z,67.21
2023-01-20T14:56:48.660Z,66.51
2023-01-20T14:58:54.985Z,67.16
2023-01-20T15:01:03.175Z,67.72
2023-01-20T15:03:23.737Z,68.00
2023-01-20T15:05:28.567Z,67.23
2023-01-20T15:07:31.350Z,67.08
2023-01-20T15:09:35.151Z,67.85
2023-01-20T15:11:37.954Z,68.96
2023-01-20T15:14:08.891Z,68.20
2023-01-20T15:16:49.706Z,69.17
2023-01-20T15:19:14.403Z,69.45
2023-01-20T15:21:27.764Z,69.08
2023-01-20T15:23:33.317Z,70.12
2023-01-20T15:25:37.804Z,68.93
2023-01-20T15:27:40.533Z,68.15
2023-01-20T15:29:43.917Z,69.17
2023-01-20T15:31:46.716Z,69.84
2023-01-20T15:33:49.571Z,69.37
2023-01-20T15:35:57.881Z,70.03
2023-01-20T15:38:00.714Z,69.57
2023-01-20T15:40:06.048Z,69.59
2023-01-20T15:42:12.074Z,69.48
2023-01-20T15:44:16.031Z,70.48
2023-01-20T15:46:19.757Z,69.86
2023-01-20T15:48:22.632Z,68.77
2023-01-20T15:50:26.875Z,69.86
2023-01-20T15:52:29.594Z,70.02
2023-01-20T15:54:32.286Z,69.00
2023-01-20T15:56:36.204Z,69.43
2023-01-20T15:58:39.047Z,69.68
2023-01-20T16:00:43.454Z,69.78
2023-01-20T16:02:46.344Z,69.64
2023-01-20T16:04:49.687Z,69.50
2023-01-20T16:06:52.585Z,69.70
2023-01-20T16:08:55.485Z,69.98
2023-01-20T16:10:58.245Z,70.81
2023-01-20T16:13:00.993Z,70.14
2023-01-20T16:15:03.924Z,70.45
2023-01-20T16:17:18.623Z,70.12
2023-01-20T16:19:21.446Z,70.77
2023-01-20T16:21:24.118Z,70.86
2023-01-20T16:23:26.792Z,70.53
2023-01-20T16:25:30.383Z,70.90
2023-01-20T16:27:32.961Z,70.21
2023-01-20T16:29:35.621Z,70.73
2023-01-20T16:31:38.328Z,70.17
2023-01-20T16:33:41.010Z,70.16
2023-01-20T16:35:43.817Z,69.95
2023-01-20T16:37:47.778Z,69.90
2023-01-20T16:39:50.496Z,69.63
2023-01-20T16:41:53.216Z,69.89
2023-01-20T16:43:56.909Z,69.65
2023-01-20T16:45:59.608Z,69.90
2023-01-20T16:48:02.267Z,70.60
2023-01-20T16:50:05.243Z,69.82
2023-01-20T16:52:07.927Z,70.37
2023-01-20T16:54:10.986Z,70.11
2023-01-20T16:56:15.590Z,70.28
2023-01-20T16:58:18.440Z,70.95
2023-01-20T17:00:22.149Z,69.37
2023-01-20T17:02:25.130Z,70.26
2023-01-20T17:04:28.805Z,69.99
2023-01-20T17:06:34.347Z,70.13
2023-01-20T17:08:37.007Z,69.92
2023-01-20T17:10:39.657Z,70.08
2023-01-20T17:12:42.256Z,70.71
2023-01-20T17:14:44.997Z,69.83
2023-01-20T17:16:47.628Z,70.37
2023-01-20T17:18:55.407Z,69.85
2023-01-20T17:20:58.130Z,70.68
2023-01-20T17:23:00.909Z,70.01
2023-01-20T17:25:04.884Z,69.58
2023-01-20T17:27:08.947Z,70.19
2023-01-20T17:29:11.796Z,69.36
2023-01-20T17:31:15.107Z,69.26
2023-01-20T17:33:17.752Z,69.21
2023-01-20T17:35:20.513Z,69.09
2023-01-20T17:37:23.217Z,69.27
2023-01-20T17:39:25.883Z,69.36
2023-01-20T17:41:28.694Z,69.41
2023-01-20T17:43:43.618Z,69.88
2023-01-20T17:45:46.292Z,69.89
2023-01-20T17:47:52.494Z,69.66
2023-01-20T17:49:55.219Z,68.92
2023-01-20T17:51:57.858Z,68.62
2023-01-20T17:54:03.636Z,68.45
2023-01-20T17:56:12.799Z,68.91
2023-01-20T17:58:16.088Z,68.80
2023-01-20T18:00:20.388Z,69.42
2023-01-20T18:02:23.155Z,69.11
2023-01-20T18:04:25.846Z,68.31
2023-01-20T18:06:28.815Z,68.38
2023-01-20T18:08:31.464Z,68.45
2023-01-20T18:10:34.018Z,68.45
2023-01-20T18:12:36.655Z,68.69
2023-01-20T18:14:39.312Z,68.51
2023-01-20T18:16:42.410Z,68.78
2023-01-20T18:18:46.710Z,69.27
2023-01-20T18:20:49.369Z,68.14
2023-01-20T18:22:52.079Z,69.02
2023-01-20T18:24:54.635Z,68.68
2023-01-20T18:26:57.974Z,69.14
2023-01-20T18:29:03.825Z,68.56
2023-01-20T18:31:10.695Z,68.87
2023-01-20T18:33:13.466Z,69.10
2023-01-20T18:35:16.175Z,69.42
2023-01-20T18:37:18.795Z,69.02
2023-01-20T18:39:23.622Z,69.28
2023-01-20T18:41:28.235Z,69.46
2023-01-20T18:43:31.479Z,69.88
2023-01-20T18:45:34.187Z,69.11
2023-01-20T18:47:36.853Z,69.01
2023-01-20T18:49:39.399Z,69.35
2023-01-20T18:51:43.274Z,69.12
2023-01-20T18:53:47.829Z,69.64
2023-01-20T18:55:50.424Z,70.22
2023-01-20T18:57:58.332Z,69.19
2023-01-20T19:00:00.932Z,69.78
2023-01-20T19:02:03.661Z,69.97
2023-01-20T19:04:09.702Z,69.84
2023-01-20T19:06:17.235Z,70.40
2023-01-20T19:08:19.896Z,70.65
2023-01-20T19:10:22.545Z,70.78
2023-01-20T19:12:25.146Z,71.46
2023-01-20T19:14:28.039Z,71.39
2023-01-20T19:16:32.833Z,70.44
2023-01-20T19:18:35.536Z,70.81
2023-01-20T19:20:38.130Z,71.23
2023-01-20T19:22:40.871Z,71.19
2023-01-20T19:24:43.461Z,71.74
2023-01-20T19:26:46.626Z,71.52
2023-01-20T19:29:00.834Z,71.90
2023-01-20T19:31:24.161Z,72.16
2023-01-20T19:33:26.944Z,71.64
2023-01-20T19:35:31.769Z,72.01
2023-01-20T19:37:34.459Z,71.68
2023-01-20T19:39:37.103Z,71.58
2023-01-20T19:41:39.791Z,72.51
2023-01-20T19:43:43.503Z,72.25
2023-01-20T19:45:46.382Z,72.22
2023-01-20T19:47:49.031Z,72.47
2023-01-20T19:49:51.731Z,72.63
2023-01-20T19:51:54.334Z,72.64
2023-01-20T19:53:58.673Z,72.42
2023-01-20T19:56:06.189Z,72.68
2023-01-20T19:58:08.907Z,72.69
2023-01-20T20:00:12.368Z,72.96
2023-01-20T20:02:15.016Z,72.58
2023-01-20T20:04:20.741Z,73.62
2023-01-20T20:06:27.777Z,72.75
2023-01-20T20:08:30.495Z,72.85
2023-01-20T20:10:33.108Z,72.97
2023-01-20T20:12:35.747Z,72.96
2023-01-20T20:14:38.502Z,72.89
2023-01-20T20:16:41.571Z,72.18
2023-01-20T20:18:48.348Z,71.94
2023-01-20T20:20:50.958Z,73.20
2023-01-20T20:22:54.127Z,72.54
2023-01-20T20:24:56.856Z,72.38
2023-01-20T20:26:59.570Z,72.13
2023-01-20T20:29:04.205Z,72.08
2023-01-20T20:31:08.948Z,71.58
2023-01-20T20:33:11.899Z,72.15
2023-01-20T20:35:14.715Z,71.49
2023-01-20T20:37:18.451Z,71.71
2023-01-20T20:39:21.722Z,71.77
2023-01-20T20:41:31.240Z,71.84
2023-01-20T20:43:35.492Z,72.08
2023-01-20T20:45:38.058Z,71.05
2023-01-20T20:47:40.673Z,71.65
2023-01-20T20:49:43.333Z,71.30
2023-01-20T20:51:46.106Z,70.46
2023-01-20T20:53:48.719Z,70.33
2023-01-20T20:55:55.377Z,70.44
2023-01-20T20:57:58.068Z,70.07
2023-01-20T21:00:00.708Z,70.35
2023-01-20T21:02:03.448Z,70.04
2023-01-20T21:04:06.131Z,70.38
2023-01-20T21:06:11.177Z,70.04
2023-01-20T21:08:13.761Z,69.58
2023-01-20T21:10:17.948Z,69.84
2023-01-20T21:12:20.722Z,69.99
2023-01-20T21:14:24.013Z,69.96
2023-01-20T21:16:27.743Z,69.37
2023-01-20T21:18:31.437Z,69.44
2023-01-20T21:20:34.176Z,69.01
2023-01-20T21:22:36.949Z,69.76
2023-01-20T21:24:39.607Z,69.68
2023-01-20T21:26:43.215Z,69.98
2023-01-20T21:28:49.359Z,70.38
2023-01-20T21:30:52.358Z,69.96
2023-01-20T21:32:54.971Z,70.21
2023-01-20T21:34:59.170Z,71.20
2023-01-20T21:37:01.819Z,70.85
2023-01-20T21:39:05.586Z,71.22
2023-01-20T21:41:10.174Z,71.36
2023-01-20T21:43:31.280Z,71.12
2023-01-20T21:45:33.916Z,71.41
2023-01-20T21:47:36.653Z,72.10
2023-01-20T21:49:57.826Z,71.91
2023-01-20T21:52:19.076Z,71.87
2023-01-20T21:54:21.797Z,71.33
2023-01-20T21:56:24.432Z,72.27
2023-01-20T21:58:26.991Z,72.27
2023-01-20T22:00:30.031Z,71.92
2023-01-20T22:02:32.751Z,72.43
2023-01-20T22:04:35.476Z,71.58
2023-01-20T22:06:38.208Z,71.58
2023-01-20T22:08:40.818Z,72.08
2023-01-20T22:10:43.471Z,71.07
2023-01-20T22:12:46.101Z,71.63
2023-01-20T22:14:48.768Z,72.18
2023-01-20T22:16:51.455Z,71.66
2023-01-20T22:18:54.522Z,71.87
2023-01-20T22:21:07.153Z,72.02
2023-01-20T22:23:10.233Z,71.67
2023-01-20T22:25:12.888Z,71.76
2023-01-20T22:27:15.486Z,71.45
2023-01-20T22:29:18.796Z,71.90
2023-01-20T22:31:23.646Z,71.97
2023-01-20T22:33:26.327Z,72.58
2023-01-20T22:35:30.430Z,72.24
2023-01-20T22:37:33.105Z,72.73
2023-01-20T22:39:36.047Z,71.87
2023-01-20T22:41:38.821Z,71.77
2023-01-20T22:43:44.335Z,71.72
2023-01-20T22:45:48.328Z,72.13
2023-01-20T22:47:51.264Z,71.87
2023-01-20T22:49:56.888Z,71.67
2023-01-20T22:51:59.593Z,71.36
2023-01-20T22:54:02.591Z,71.97
2023-01-20T22:56:17.261Z,71.74
2023-01-20T22:58:19.870Z,71.90
2023-01-20T23:00:24.287Z,71.81
2023-01-20T23:02:27.028Z,71.96
2023-01-20T23:04:29.726Z,71.02
2023-01-20T23:06:35.408Z,71.74
2023-01-20T23:08:39.011Z,71.63
2023-01-20T23:10:47.799Z,71.33
2023-01-20T23:12:51.972Z,71.00
2023-01-20T23:15:00.694Z,71.65
2023-01-20T23:17:03.372Z,70.96
2023-01-20T23:19:06.852Z,71.41
2023-01-20T23:21:09.808Z,71.83
2023-01-20T23:23:12.455Z,71.37
2023-01-20T23:25:15.206Z,72.24
2023-01-20T23:27:17.899Z,72.87
2023-01-20T23:29:20.499Z,72.37
2023-01-20T23:31:25.430Z,71.48
2023-01-20T23:33:28.212Z,71.73
2023-01-20T23:35:30.921Z,71.80
2023-01-20T23:37:33.779Z,72.28
2023-01-20T23:39:36.395Z,71.77
2023-01-20T23:41:39.014Z,72.15
2023-01-20T23:43:42.465Z,71.77
2023-01-20T23:45:45.086Z,72.18
2023-01-20T23:47:47.719Z,72.87
2023-01-20T23:49:51.245Z,72.34
2023-01-20T23:51:53.902Z,72.08
2023-01-20T23:53:57.051Z,72.53
2023-01-20T23:56:04.655Z,72.15
2023-01-20T23:58:07.263Z,72.36
